Time;durP1;ratioP1;P1;durP2;ratioP2;P2;SDS_P1;SDS_P2;PMS_P1;PMS_P2;Temp;Humidity;BMP_temperature;BMP_pressure;BME280_temperature;BME280_humidity;BME280_pressure;Samples;Min_cycle;Max_cycle;Signal;HPM_P1;HPM_P2
2021/08/10 00:00:22;;;;;;;0.80;0.40;;;18.20;99.90;;;;;;5095196;28;20426;-56
2021/08/10 00:02:49;;;;;;;0.80;0.50;;;18.20;99.90;;;;;;5095730;28;20525;-58
2021/08/10 00:05:16;;;;;;;1.50;0.40;;;18.10;99.90;;;;;;5094997;28;20689;-57
2021/08/10 00:07:43;;;;;;;1.10;0.50;;;18.10;99.90;;;;;;5094694;28;20702;-58
2021/08/10 00:10:11;;;;;;;0.60;0.40;;;18.10;99.90;;;;;;5095335;28;20437;-58
2021/08/10 00:12:38;;;;;;;0.90;0.43;;;18.10;99.90;;;;;;5095701;28;20425;-57
2021/08/10 00:15:07;;;;;;;0.70;0.50;;;18.10;99.90;;;;;;5095068;28;20418;-57
2021/08/10 00:17:36;;;;;;;0.70;0.50;;;18.00;99.90;;;;;;5094576;28;20520;-58
2021/08/10 00:20:03;;;;;;;0.50;0.40;;;18.00;99.90;;;;;;5094921;28;20471;-58
2021/08/10 00:22:30;;;;;;;0.98;0.60;;;17.90;99.90;;;;;;5094165;28;20465;-58
2021/08/10 00:24:57;;;;;;;3.30;0.50;;;17.90;99.90;;;;;;5096136;28;20796;-56
2021/08/10 00:27:24;;;;;;;1.00;0.50;;;17.80;99.90;;;;;;5098880;28;20425;-58
2021/08/10 00:29:51;;;;;;;0.60;0.40;;;17.70;99.90;;;;;;5098687;28;20607;-57
2021/08/10 00:32:17;;;;;;;0.90;0.50;;;17.70;99.90;;;;;;5097910;28;20421;-57
2021/08/10 00:34:46;;;;;;;1.80;0.50;;;17.80;99.90;;;;;;5097368;28;20713;-58
2021/08/10 00:37:13;;;;;;;0.75;0.50;;;17.70;99.90;;;;;;5097744;28;20420;-57
2021/08/10 00:39:40;;;;;;;0.70;0.50;;;17.60;99.90;;;;;;5095407;28;20441;-58
2021/08/10 00:42:07;;;;;;;0.65;0.40;;;17.60;99.90;;;;;;5095164;28;20432;-58
2021/08/10 00:44:34;;;;;;;0.80;0.50;;;17.70;99.90;;;;;;5095243;28;20414;-56
2021/08/10 00:47:01;;;;;;;0.68;0.40;;;17.80;99.90;;;;;;5096529;28;20544;-58
2021/08/10 00:49:28;;;;;;;1.50;0.40;;;17.90;99.90;;;;;;5094318;28;20508;-57
2021/08/10 00:51:56;;;;;;;1.17;0.40;;;18.00;99.90;;;;;;5095066;28;20714;-58
2021/08/10 00:54:24;;;;;;;0.80;0.40;;;18.20;99.90;;;;;;5094738;28;20424;-58
2021/08/10 00:56:53;;;;;;;1.95;0.50;;;18.30;99.90;;;;;;5096519;28;20425;-58
2021/08/10 00:59:20;;;;;;;1.10;0.40;;;18.30;99.90;;;;;;5097232;28;21021;-58
2021/08/10 01:01:47;;;;;;;1.30;0.40;;;18.40;99.90;;;;;;5096765;28;20432;-58
2021/08/10 01:04:14;;;;;;;0.80;0.45;;;18.40;99.90;;;;;;5097589;28;20829;-57
2021/08/10 01:06:55;;;;;;;1.00;0.50;;;18.40;99.90;;;;;;5098264;28;20528;-58
2021/08/10 01:09:29;;;;;;;0.80;0.40;;;18.40;99.90;;;;;;5098137;28;20855;-58
2021/08/10 01:12:03;;;;;;;0.80;0.50;;;18.40;99.90;;;;;;5097273;28;20421;-58
2021/08/10 01:14:37;;;;;;;0.60;0.47;;;18.40;99.90;;;;;;5098241;28;20428;-57
2021/08/10 01:17:08;;;;;;;1.90;0.50;;;18.20;99.90;;;;;;5098057;28;20422;-58
2021/08/10 01:20:06;;;;;;;1.80;0.50;;;18.20;99.90;;;;;;5097825;28;20421;-57
2021/08/10 01:22:36;;;;;;;1.20;0.80;;;18.20;99.90;;;;;;5091587;28;20520;-57
2021/08/10 01:25:11;;;;;;;2.60;0.55;;;18.20;99.90;;;;;;5098749;28;20479;-58
2021/08/10 01:27:53;;;;;;;1.70;0.50;;;18.30;99.90;;;;;;5098463;28;20424;-57
2021/08/10 01:30:23;;;;;;;0.98;0.40;;;18.30;99.90;;;;;;5097172;28;20493;-58
2021/08/10 01:32:52;;;;;;;0.80;0.50;;;18.30;99.90;;;;;;5097807;28;20904;-58
2021/08/10 01:35:21;;;;;;;0.60;0.40;;;18.30;99.90;;;;;;5098123;28;20448;-57
2021/08/10 01:37:53;;;;;;;1.00;0.50;;;18.30;99.90;;;;;;5096815;28;20429;-58
2021/08/10 01:40:23;;;;;;;1.40;0.50;;;18.30;99.90;;;;;;5097460;28;20436;-57
2021/08/10 01:42:53;;;;;;;1.00;0.50;;;18.20;99.90;;;;;;5098056;28;20516;-58
2021/08/10 01:45:19;;;;;;;0.70;0.40;;;18.10;99.90;;;;;;5098084;28;20775;-58
2021/08/10 01:47:48;;;;;;;1.27;0.50;;;18.10;99.90;;;;;;5097492;28;20846;-57
2021/08/10 01:50:17;;;;;;;1.30;0.50;;;18.10;99.90;;;;;;5096661;28;20413;-54
2021/08/10 01:52:45;;;;;;;0.70;0.50;;;18.00;99.90;;;;;;5097492;28;20426;-58
2021/08/10 01:55:12;;;;;;;0.70;0.40;;;18.00;99.90;;;;;;5096970;28;20430;-58
2021/08/10 01:57:41;;;;;;;1.40;0.50;;;18.00;99.90;;;;;;5097566;28;20520;-58
2021/08/10 02:00:09;;;;;;;1.30;0.50;;;18.00;99.90;;;;;;5097424;28;20727;-56
2021/08/10 02:02:36;;;;;;;0.80;0.50;;;18.00;99.90;;;;;;5096991;28;20425;-55
2021/08/10 02:05:03;;;;;;;0.80;0.50;;;18.10;99.90;;;;;;5097494;28;20418;-57
2021/08/10 02:07:32;;;;;;;0.68;0.50;;;18.10;99.90;;;;;;5097796;28;20469;-56
2021/08/10 02:10:00;;;;;;;0.70;0.40;;;18.10;99.90;;;;;;5097583;28;20462;-56
2021/08/10 02:12:28;;;;;;;1.70;0.50;;;18.10;99.90;;;;;;5097598;28;20517;-55
2021/08/10 02:14:56;;;;;;;0.70;0.50;;;18.00;99.90;;;;;;5097216;28;20424;-56
2021/08/10 02:17:23;;;;;;;0.60;0.40;;;18.00;99.90;;;;;;5097185;28;20512;-56
2021/08/10 02:19:50;;;;;;;0.70;0.50;;;18.00;99.90;;;;;;5096986;28;20457;-54
2021/08/10 02:22:18;;;;;;;1.30;0.50;;;17.90;99.90;;;;;;5097639;28;20884;-56
2021/08/10 02:24:52;;;;;;;0.68;0.40;;;17.90;99.90;;;;;;5097445;28;20501;-56
2021/08/10 02:27:27;;;;;;;0.75;0.50;;;17.90;99.90;;;;;;5096946;28;20528;-56
2021/08/10 02:29:54;;;;;;;2.60;0.50;;;17.90;99.90;;;;;;5096883;28;20508;-57
2021/08/10 02:32:25;;;;;;;0.80;0.50;;;17.90;99.90;;;;;;5097257;28;20426;-55
2021/08/10 02:34:53;;;;;;;0.80;0.50;;;17.90;99.90;;;;;;5097190;28;20703;-55
2021/08/10 02:37:21;;;;;;;0.80;0.50;;;17.90;99.90;;;;;;5096632;28;20424;-57
2021/08/10 02:39:50;;;;;;;0.90;0.40;;;17.80;99.90;;;;;;5096658;28;20508;-55
2021/08/10 02:42:20;;;;;;;1.00;0.50;;;17.80;99.90;;;;;;5095735;28;20425;-57
2021/08/10 02:44:49;;;;;;;0.70;0.40;;;17.80;99.90;;;;;;5095280;28;20414;-58
2021/08/10 02:47:17;;;;;;;0.70;0.50;;;17.80;99.90;;;;;;5094561;28;20434;-55
2021/08/10 02:49:44;;;;;;;0.70;0.40;;;17.80;99.90;;;;;;5092954;28;20586;-54
2021/08/10 02:52:12;;;;;;;0.80;0.50;;;17.70;99.90;;;;;;5096061;28;20436;-56
2021/08/10 02:54:40;;;;;;;1.00;0.60;;;17.70;99.90;;;;;;5096734;28;20512;-57
2021/08/10 02:57:17;;;;;;;0.70;0.50;;;17.70;99.90;;;;;;5095288;28;20422;-56
2021/08/10 02:59:48;;;;;;;0.60;0.40;;;17.70;99.90;;;;;;5093110;28;20445;-57
2021/08/10 03:02:18;;;;;;;2.10;0.50;;;17.70;99.90;;;;;;5093465;28;20422;-60
2021/08/10 03:04:50;;;;;;;0.93;0.50;;;17.70;99.90;;;;;;5093553;28;20512;-55
2021/08/10 03:07:19;;;;;;;0.60;0.40;;;17.60;99.90;;;;;;5093187;28;20434;-55
2021/08/10 03:09:48;;;;;;;0.90;0.40;;;17.60;99.90;;;;;;5093342;28;20414;-57
2021/08/10 03:12:20;;;;;;;0.63;0.40;;;17.60;99.90;;;;;;5093401;28;20727;-58
2021/08/10 03:14:49;;;;;;;0.70;0.50;;;17.70;99.90;;;;;;5092692;28;20537;-56
2021/08/10 03:17:17;;;;;;;0.80;0.50;;;17.70;99.90;;;;;;5094066;28;20798;-56
2021/08/10 03:19:46;;;;;;;0.70;0.50;;;17.80;99.90;;;;;;5096112;28;20786;-56
2021/08/10 03:22:14;;;;;;;0.80;0.45;;;17.70;99.90;;;;;;5096320;28;20449;-56
2021/08/10 03:24:42;;;;;;;0.90;0.50;;;17.60;99.90;;;;;;5096085;28;20421;-56
2021/08/10 03:27:10;;;;;;;0.80;0.60;;;17.60;99.90;;;;;;5095252;28;20516;-57
2021/08/10 03:29:39;;;;;;;0.90;0.50;;;17.60;99.90;;;;;;5095802;28;20796;-56
2021/08/10 03:32:07;;;;;;;0.80;0.50;;;17.60;99.90;;;;;;5095075;28;20516;-56
2021/08/10 03:34:34;;;;;;;0.80;0.50;;;17.70;99.90;;;;;;5095761;28;20418;-56
2021/08/10 03:37:02;;;;;;;0.70;0.50;;;17.70;99.90;;;;;;5094651;28;20741;-56
2021/08/10 03:39:30;;;;;;;0.70;0.50;;;17.70;99.90;;;;;;5093986;28;20516;-57
2021/08/10 03:41:57;;;;;;;1.17;0.50;;;17.70;99.90;;;;;;5094205;28;20726;-56
2021/08/10 03:44:24;;;;;;;0.90;0.60;;;17.70;99.90;;;;;;5093406;28;20422;-57
2021/08/10 03:46:53;;;;;;;1.30;0.50;;;17.60;99.90;;;;;;5092877;28;20524;-56
2021/08/10 03:49:23;;;;;;;1.70;0.50;;;17.60;99.90;;;;;;5093267;28;20410;-56
2021/08/10 03:51:51;;;;;;;0.80;0.50;;;17.60;99.90;;;;;;5093963;28;20426;-56
2021/08/10 03:54:18;;;;;;;0.93;0.50;;;17.50;99.90;;;;;;5095015;28;21008;-55
2021/08/10 03:56:49;;;;;;;1.10;0.50;;;17.40;99.90;;;;;;5094523;28;20562;-56
2021/08/10 03:59:20;;;;;;;0.70;0.50;;;17.50;99.90;;;;;;5093405;28;20421;-57
2021/08/10 04:01:48;;;;;;;0.90;0.50;;;17.50;99.90;;;;;;5094680;28;20453;-56
2021/08/10 04:04:18;;;;;;;1.00;0.50;;;17.60;99.90;;;;;;5093512;28;20498;-56
2021/08/10 04:06:45;;;;;;;1.90;0.50;;;17.60;99.90;;;;;;5091639;28;20845;-56
2021/08/10 04:09:12;;;;;;;1.50;0.50;;;17.60;99.90;;;;;;5091163;28;20428;-56
2021/08/10 04:11:40;;;;;;;0.70;0.50;;;17.60;99.90;;;;;;5091933;28;20422;-55
2021/08/10 04:14:07;;;;;;;0.80;0.60;;;17.60;99.90;;;;;;5091961;28;20414;-56
2021/08/10 04:16:40;;;;;;;0.90;0.60;;;17.70;99.90;;;;;;5090876;28;20418;-53
2021/08/10 04:19:09;;;;;;;0.82;0.50;;;17.70;99.90;;;;;;5091734;28;20410;-58
2021/08/10 04:21:37;;;;;;;0.73;0.50;;;17.60;99.90;;;;;;5093358;28;20744;-58
2021/08/10 04:24:05;;;;;;;1.00;0.50;;;17.70;99.90;;;;;;5094115;28;20424;-58
2021/08/10 04:26:33;;;;;;;0.90;0.60;;;17.70;99.90;;;;;;5093682;28;20821;-57
2021/08/10 04:29:00;;;;;;;1.75;0.60;;;17.80;99.90;;;;;;5095122;28;20826;-57
2021/08/10 04:31:27;;;;;;;0.82;0.60;;;17.70;99.90;;;;;;5095148;28;20425;-58
2021/08/10 04:33:54;;;;;;;0.63;0.50;;;17.50;99.90;;;;;;5094629;28;20422;-58
2021/08/10 04:36:21;;;;;;;0.80;0.50;;;17.40;99.90;;;;;;5093422;28;20426;-58
2021/08/10 04:38:49;;;;;;;1.00;0.50;;;17.20;99.90;;;;;;5094099;28;20847;-58
2021/08/10 04:41:16;;;;;;;0.80;0.60;;;17.20;99.90;;;;;;5093766;28;20422;-59
2021/08/10 04:43:43;;;;;;;0.80;0.50;;;17.20;99.90;;;;;;5093483;28;20833;-59
2021/08/10 04:46:10;;;;;;;0.70;0.50;;;17.40;99.90;;;;;;5093723;28;20501;-59
2021/08/10 04:48:37;;;;;;;0.88;0.50;;;17.70;99.90;;;;;;5094026;28;20433;-59
2021/08/10 04:51:03;;;;;;;1.00;0.50;;;17.80;99.90;;;;;;5094016;28;20437;-58
2021/08/10 04:53:30;;;;;;;0.80;0.50;;;17.90;99.90;;;;;;5094722;28;20797;-58
2021/08/10 04:55:58;;;;;;;0.70;0.50;;;17.90;99.90;;;;;;5094546;28;20418;-59
2021/08/10 04:58:25;;;;;;;0.70;0.50;;;17.70;99.90;;;;;;5093995;28;20508;-59
2021/08/10 05:00:52;;;;;;;2.00;0.57;;;17.70;99.90;;;;;;5094797;28;20453;-59
2021/08/10 05:03:19;;;;;;;0.90;0.60;;;17.40;99.90;;;;;;5095118;28;20421;-59
2021/08/10 05:05:48;;;;;;;0.70;0.50;;;17.10;99.90;;;;;;5094918;28;20420;-59
2021/08/10 05:08:15;;;;;;;1.27;0.52;;;17.00;99.90;;;;;;5094454;28;20857;-59
2021/08/10 05:10:43;;;;;;;1.70;0.50;;;16.90;99.90;;;;;;5095791;28;20420;-57
2021/08/10 05:13:11;;;;;;;1.05;0.50;;;17.00;99.90;;;;;;5098321;28;20734;-57
2021/08/10 05:15:38;;;;;;;2.30;0.55;;;17.20;99.90;;;;;;5098348;28;20414;-56
2021/08/10 05:18:05;;;;;;;0.70;0.50;;;17.50;99.90;;;;;;5097903;28;20884;-58
2021/08/10 05:20:32;;;;;;;2.40;0.60;;;17.50;99.90;;;;;;5098328;28;20418;-58
2021/08/10 05:22:59;;;;;;;0.90;0.50;;;17.50;99.90;;;;;;5097828;28;20865;-58
2021/08/10 05:25:26;;;;;;;0.85;0.50;;;17.60;99.90;;;;;;5097977;28;20487;-57
2021/08/10 05:27:54;;;;;;;1.75;0.50;;;17.70;99.90;;;;;;5097019;28;20741;-59
2021/08/10 05:30:22;;;;;;;0.90;0.60;;;18.20;99.90;;;;;;5097530;28;20512;-58
2021/08/10 05:32:49;;;;;;;0.70;0.50;;;18.40;99.90;;;;;;5097020;28;20528;-58
2021/08/10 05:35:16;;;;;;;0.90;0.50;;;18.50;99.90;;;;;;5097090;28;20418;-58
2021/08/10 05:37:43;;;;;;;1.50;0.50;;;18.50;99.90;;;;;;5098096;28;20804;-58
2021/08/10 05:40:10;;;;;;;2.50;0.60;;;18.60;99.90;;;;;;5097710;28;20868;-58
2021/08/10 05:42:37;;;;;;;1.10;0.60;;;18.70;99.90;;;;;;5096742;28;20426;-58
2021/08/10 05:45:05;;;;;;;1.40;0.50;;;18.70;99.90;;;;;;5097724;28;20453;-58
2021/08/10 05:47:33;;;;;;;1.40;0.70;;;18.70;99.90;;;;;;5096568;28;20524;-57
2021/08/10 05:50:00;;;;;;;0.90;0.50;;;18.60;99.90;;;;;;5095945;28;20830;-58
2021/08/10 05:52:27;;;;;;;0.80;0.50;;;18.70;99.90;;;;;;5096584;28;20436;-58
2021/08/10 05:54:55;;;;;;;1.00;0.50;;;18.70;99.90;;;;;;5096683;28;20453;-58
2021/08/10 05:57:22;;;;;;;1.05;0.50;;;18.60;99.90;;;;;;5097081;28;20426;-57
2021/08/10 05:59:49;;;;;;;1.42;0.52;;;18.50;99.90;;;;;;5096371;28;20897;-59
2021/08/10 06:02:16;;;;;;;1.23;0.60;;;18.40;99.90;;;;;;5097083;28;20479;-59
2021/08/10 06:04:44;;;;;;;1.00;0.60;;;18.40;99.90;;;;;;5096856;28;20501;-59
2021/08/10 06:07:11;;;;;;;1.60;0.60;;;18.30;99.90;;;;;;5097313;28;20521;-58
2021/08/10 06:09:42;;;;;;;0.80;0.50;;;18.30;99.90;;;;;;5096530;28;20451;-59
2021/08/10 06:12:10;;;;;;;1.08;0.50;;;18.40;99.90;;;;;;5096567;28;20425;-58
2021/08/10 06:14:37;;;;;;;0.70;0.50;;;18.60;99.90;;;;;;5096309;28;20417;-58
2021/08/10 06:17:04;;;;;;;0.65;0.50;;;18.80;99.90;;;;;;5096456;28;20717;-58
2021/08/10 06:19:31;;;;;;;1.10;0.50;;;19.00;99.90;;;;;;5096393;28;20505;-58
2021/08/10 06:21:59;;;;;;;0.73;0.50;;;19.20;99.90;;;;;;5095355;28;20478;-58
2021/08/10 06:24:28;;;;;;;0.70;0.50;;;19.20;99.90;;;;;;5095616;28;20429;-58
2021/08/10 06:26:55;;;;;;;1.10;0.50;;;19.30;99.90;;;;;;5096672;28;20452;-60
2021/08/10 06:29:22;;;;;;;0.80;0.50;;;19.40;99.90;;;;;;5094536;28;20433;-58
2021/08/10 06:31:48;;;;;;;0.95;0.55;;;19.60;99.90;;;;;;5095812;28;20418;-58
2021/08/10 06:34:16;;;;;;;2.80;0.60;;;19.80;99.90;;;;;;5078998;28;20502;-58
2021/08/10 06:36:43;;;;;;;1.10;0.50;;;19.90;99.90;;;;;;5075804;28;20434;-58
2021/08/10 06:39:12;;;;;;;1.80;0.60;;;20.00;99.90;;;;;;5074728;28;20428;-58
2021/08/10 06:41:38;;;;;;;1.20;0.60;;;20.10;99.90;;;;;;5075458;28;20510;-58
2021/08/10 06:44:06;;;;;;;1.50;0.50;;;20.20;99.90;;;;;;5075042;28;20514;-59
2021/08/10 06:46:33;;;;;;;1.60;0.60;;;20.30;99.90;;;;;;5075084;28;20842;-58
2021/08/10 06:49:00;;;;;;;0.80;0.50;;;20.20;99.90;;;;;;5074088;28;20444;-58
2021/08/10 06:51:27;;;;;;;1.25;0.60;;;20.20;99.90;;;;;;5073348;28;20484;-58
2021/08/10 06:53:53;;;;;;;1.63;0.60;;;20.00;99.90;;;;;;5071121;28;20431;-59
2021/08/10 06:56:22;;;;;;;1.10;0.60;;;19.90;99.90;;;;;;5071714;28;20430;-58
2021/08/10 06:58:49;;;;;;;1.00;0.60;;;19.70;99.90;;;;;;5072807;28;20728;-58
2021/08/10 07:01:16;;;;;;;1.27;0.50;;;19.80;99.90;;;;;;5073825;28;20511;-58
2021/08/10 07:03:43;;;;;;;0.80;0.50;;;19.90;99.90;;;;;;5074395;28;20852;-59
2021/08/10 07:06:11;;;;;;;0.90;0.60;;;20.00;99.90;;;;;;5073903;28;20423;-58
2021/08/10 07:08:38;;;;;;;1.02;0.50;;;20.00;99.90;;;;;;5087080;28;20509;-58
2021/08/10 07:11:06;;;;;;;0.70;0.40;;;20.00;99.90;;;;;;5095248;28;20822;-57
2021/08/10 07:13:34;;;;;;;1.10;0.60;;;20.00;99.90;;;;;;5095775;28;20468;-58
2021/08/10 07:16:01;;;;;;;1.00;0.57;;;20.00;99.90;;;;;;5095487;28;20505;-57
2021/08/10 07:18:28;;;;;;;1.20;0.60;;;20.20;99.90;;;;;;5094264;28;20519;-58
2021/08/10 07:20:55;;;;;;;0.77;0.50;;;20.40;99.90;;;;;;5094051;28;20905;-59
2021/08/10 07:23:22;;;;;;;1.08;0.50;;;20.50;99.90;;;;;;5093607;28;20432;-59
2021/08/10 07:25:49;;;;;;;0.80;0.50;;;20.50;99.90;;;;;;5092411;28;20409;-59
2021/08/10 07:28:16;;;;;;;1.00;0.50;;;20.70;99.90;;;;;;5093404;28;20433;-60
2021/08/10 07:30:44;;;;;;;0.90;0.50;;;20.80;99.90;;;;;;5093888;28;20500;-61
2021/08/10 07:33:11;;;;;;;0.65;0.50;;;20.60;99.90;;;;;;5094653;28;20430;-59
2021/08/10 07:35:38;;;;;;;1.83;0.50;;;20.50;99.90;;;;;;5092370;28;20409;-59
2021/08/10 07:38:05;;;;;;;0.63;0.50;;;20.50;99.90;;;;;;5093534;28;20428;-59
2021/08/10 07:40:32;;;;;;;0.80;0.50;;;20.60;99.90;;;;;;5092566;28;20488;-59
2021/08/10 07:42:59;;;;;;;2.00;0.77;;;20.60;99.90;;;;;;5091839;28;20425;-59
2021/08/10 07:45:26;;;;;;;1.10;0.50;;;20.60;99.90;;;;;;5092419;28;20428;-59
2021/08/10 07:47:55;;;;;;;2.10;0.60;;;20.70;99.90;;;;;;5092554;28;20433;-59
2021/08/10 07:50:22;;;;;;;1.10;0.50;;;20.70;99.90;;;;;;5089768;28;20410;-59
2021/08/10 07:52:49;;;;;;;0.70;0.47;;;20.90;99.90;;;;;;5092018;28;20430;-60
2021/08/10 07:55:17;;;;;;;0.90;0.50;;;21.00;99.90;;;;;;5092799;28;20426;-59
2021/08/10 07:57:45;;;;;;;0.70;0.45;;;21.10;99.90;;;;;;5091682;28;20421;-59
2021/08/10 08:00:13;;;;;;;1.55;0.60;;;21.20;99.90;;;;;;5090717;28;20424;-59
2021/08/10 08:02:40;;;;;;;1.00;0.60;;;21.20;99.90;;;;;;5091510;28;20882;-59
2021/08/10 08:05:10;;;;;;;0.90;0.50;;;21.10;99.90;;;;;;5090796;28;20798;-59
2021/08/10 08:07:36;;;;;;;1.27;0.50;;;21.10;99.90;;;;;;5091192;28;20440;-59
2021/08/10 08:10:03;;;;;;;0.75;0.40;;;21.30;99.90;;;;;;5091862;28;20517;-59
2021/08/10 08:12:30;;;;;;;1.10;0.50;;;21.10;99.90;;;;;;5091940;28;20425;-59
2021/08/10 08:14:57;;;;;;;0.93;0.50;;;21.10;99.90;;;;;;5093870;28;20424;-59
2021/08/10 08:17:24;;;;;;;1.20;0.55;;;21.30;99.90;;;;;;5093247;28;20848;-59
2021/08/10 08:19:51;;;;;;;1.48;0.60;;;21.60;99.90;;;;;;5093116;28;20508;-60
2021/08/10 08:22:19;;;;;;;2.27;0.50;;;21.70;99.90;;;;;;5092725;28;20861;-59
2021/08/10 08:24:46;;;;;;;0.80;0.50;;;21.90;99.90;;;;;;5093413;28;20509;-59
2021/08/10 08:27:13;;;;;;;3.33;2.05;;;21.80;99.90;;;;;;5093408;28;20436;-60
2021/08/10 08:29:40;;;;;;;3.70;2.50;;;22.00;99.90;;;;;;5094190;28;20850;-59
2021/08/10 08:32:08;;;;;;;1.77;0.70;;;22.00;99.90;;;;;;5085796;28;20525;-60
2021/08/10 08:34:36;;;;;;;0.70;0.50;;;21.90;99.90;;;;;;5082784;28;20438;-60
2021/08/10 08:37:04;;;;;;;0.70;0.50;;;22.00;99.90;;;;;;5073543;28;20458;-60
2021/08/10 08:39:32;;;;;;;1.30;0.50;;;22.30;99.90;;;;;;5087065;28;20420;-60
2021/08/10 08:42:01;;;;;;;1.10;0.50;;;22.50;99.90;;;;;;5092895;28;20426;-59
2021/08/10 08:44:34;;;;;;;1.30;0.40;;;22.50;99.90;;;;;;5093209;28;20436;-61
2021/08/10 08:47:02;;;;;;;1.20;0.50;;;22.40;99.90;;;;;;5095263;28;20425;-60
2021/08/10 08:49:32;;;;;;;0.70;0.40;;;22.50;99.90;;;;;;5094934;28;20461;-60
2021/08/10 08:52:01;;;;;;;0.70;0.50;;;22.50;99.90;;;;;;5085576;28;20431;-60
2021/08/10 08:54:30;;;;;;;0.90;0.40;;;22.50;99.90;;;;;;5085730;28;20471;-59
2021/08/10 08:56:58;;;;;;;0.70;0.43;;;22.50;99.90;;;;;;5077275;28;20449;-61
2021/08/10 08:59:25;;;;;;;1.10;0.40;;;22.50;99.90;;;;;;5078838;28;20896;-61
2021/08/10 09:01:53;;;;;;;1.98;0.43;;;22.40;99.90;;;;;;5075717;28;20415;-62
2021/08/10 09:04:21;;;;;;;0.70;0.40;;;22.60;99.90;;;;;;5079771;28;20427;-60
2021/08/10 09:06:48;;;;;;;0.63;0.40;;;22.70;99.90;;;;;;5079504;28;20496;-62
2021/08/10 09:09:26;;;;;;;1.80;0.40;;;22.90;99.90;;;;;;5091437;28;20430;-61
2021/08/10 09:11:55;;;;;;;1.15;0.40;;;23.00;99.90;;;;;;5096219;28;20615;-62
2021/08/10 09:14:24;;;;;;;0.60;0.40;;;23.10;99.90;;;;;;5093626;28;20417;-61
2021/08/10 09:17:06;;;;;;;1.02;0.40;;;22.90;99.90;;;;;;5096229;28;20436;-61
2021/08/10 09:19:42;;;;;;;1.43;0.67;;;23.10;99.90;;;;;;5095961;28;20426;-60
2021/08/10 09:22:21;;;;;;;1.40;0.50;;;23.30;99.90;;;;;;5095060;28;20532;-60
2021/08/10 09:24:52;;;;;;;1.20;0.40;;;23.20;99.90;;;;;;5096142;28;20440;-60
2021/08/10 09:27:34;;;;;;;0.90;0.50;;;23.20;99.90;;;;;;5095593;28;20509;-60
2021/08/10 09:30:03;;;;;;;0.70;0.40;;;23.20;99.90;;;;;;5096931;28;20496;-61
2021/08/10 09:32:30;;;;;;;0.90;0.40;;;23.20;99.90;;;;;;5096977;28;20440;-61
2021/08/10 09:35:16;;;;;;;0.77;0.40;;;23.20;99.90;;;;;;5095920;28;20860;-60
2021/08/10 09:37:44;;;;;;;0.80;0.50;;;23.20;99.90;;;;;;5095235;28;20441;-62
2021/08/10 09:40:29;;;;;;;1.20;0.40;;;23.30;99.90;;;;;;5095408;28;20436;-61
2021/08/10 09:43:18;;;;;;;0.63;0.40;;;23.30;99.90;;;;;;5096577;28;20428;-61
2021/08/10 09:45:46;;;;;;;1.10;0.40;;;23.40;99.90;;;;;;5095681;28;20421;-61
2021/08/10 09:48:14;;;;;;;0.80;0.50;;;23.70;99.90;;;;;;5096193;28;20733;-61
2021/08/10 09:50:42;;;;;;;0.90;0.40;;;23.70;99.90;;;;;;5097170;28;20814;-61
2021/08/10 09:53:19;;;;;;;0.60;0.40;;;23.80;99.90;;;;;;5096028;28;20945;-61
2021/08/10 09:55:56;;;;;;;0.60;0.40;;;23.70;99.90;;;;;;5095682;28;20494;-61
2021/08/10 09:58:23;;;;;;;0.60;0.40;;;23.70;99.90;;;;;;5095459;28;20462;-62
2021/08/10 10:00:52;;;;;;;1.23;0.50;;;23.90;99.90;;;;;;5096461;28;20425;-63
2021/08/10 10:03:20;;;;;;;0.60;0.40;;;24.10;99.90;;;;;;5096105;28;20427;-63
2021/08/10 10:05:48;;;;;;;1.60;0.40;;;24.00;99.90;;;;;;5095435;28;20424;-64
2021/08/10 10:08:17;;;;;;;0.80;0.43;;;24.00;99.90;;;;;;5094650;28;20921;-62
2021/08/10 10:10:44;;;;;;;1.10;0.50;;;24.10;99.90;;;;;;5094683;28;20417;-63
2021/08/10 10:13:13;;;;;;;1.70;0.60;;;24.20;99.90;;;;;;5094145;28;20418;-62
2021/08/10 10:15:41;;;;;;;1.05;0.65;;;24.20;99.90;;;;;;5093844;28;20849;-64
2021/08/10 10:18:10;;;;;;;1.20;0.40;;;24.10;99.90;;;;;;5095030;28;20468;-62
2021/08/10 10:20:41;;;;;;;0.70;0.40;;;24.20;99.90;;;;;;5093779;28;20484;-62
2021/08/10 10:23:10;;;;;;;1.13;0.40;;;24.00;99.90;;;;;;5086712;28;20915;-63
2021/08/10 10:25:37;;;;;;;0.50;0.30;;;24.10;99.90;;;;;;5090352;28;20432;-65
2021/08/10 10:28:04;;;;;;;1.20;0.40;;;24.00;99.90;;;;;;5095615;28;20489;-67
2021/08/10 10:30:31;;;;;;;0.73;0.40;;;24.30;99.90;;;;;;5096147;28;20505;-63
2021/08/10 10:32:59;;;;;;;0.95;0.60;;;24.60;99.90;;;;;;5095507;28;20452;-62
2021/08/10 10:35:28;;;;;;;1.20;0.60;;;24.70;99.90;;;;;;5095324;28;20429;-61
2021/08/10 10:37:56;;;;;;;0.63;0.40;;;24.70;99.90;;;;;;5095384;28;20426;-65
2021/08/10 10:40:24;;;;;;;0.90;0.40;;;24.80;99.90;;;;;;5095499;28;20848;-62
2021/08/10 10:42:55;;;;;;;0.80;0.50;;;25.00;99.90;;;;;;5096097;28;20495;-63
2021/08/10 10:45:33;;;;;;;1.10;0.80;;;24.90;99.90;;;;;;5095025;28;20422;-62
2021/08/10 10:48:00;;;;;;;1.73;0.70;;;24.80;99.90;;;;;;5076649;28;20487;-62
2021/08/10 10:50:28;;;;;;;0.60;0.50;;;24.70;99.90;;;;;;5073021;28;20456;-61
2021/08/10 10:53:09;;;;;;;1.10;0.50;;;24.60;99.90;;;;;;5073389;28;20427;-61
2021/08/10 10:55:40;;;;;;;4.10;3.70;;;24.40;99.90;;;;;;5073522;28;20422;-62
2021/08/10 10:58:29;;;;;;;1.00;0.50;;;24.60;99.90;;;;;;5073504;28;20420;-60
2021/08/10 11:01:21;;;;;;;0.98;0.40;;;25.00;99.90;;;;;;5073046;28;20830;-61
2021/08/10 11:04:12;;;;;;;2.03;1.45;;;24.90;99.90;;;;;;5072872;28;20430;-58
2021/08/10 11:06:45;;;;;;;0.98;0.50;;;25.20;99.90;;;;;;5073667;28;20534;-59
2021/08/10 11:09:57;;;;;;;0.60;0.40;;;25.20;99.90;;;;;;5072554;28;20437;-59
2021/08/10 11:12:42;;;;;;;1.10;0.40;;;25.30;99.90;;;;;;5074549;28;20427;-59
2021/08/10 11:15:10;;;;;;;0.70;0.40;;;25.50;99.90;;;;;;5074258;28;20924;-58
2021/08/10 11:17:38;;;;;;;0.80;0.50;;;25.70;99.90;;;;;;5074485;28;20427;-60
2021/08/10 11:20:25;;;;;;;1.00;0.50;;;25.80;99.90;;;;;;5074146;28;20496;-59
2021/08/10 11:23:28;;;;;;;0.60;0.40;;;25.60;99.90;;;;;;5071830;28;20434;-60
2021/08/10 11:26:33;;;;;;;1.90;0.50;;;25.60;99.90;;;;;;5068827;28;20607;-60
2021/08/10 11:29:00;;;;;;;0.82;0.40;;;25.80;99.90;;;;;;5071055;28;20636;-60
2021/08/10 11:31:41;;;;;;;0.70;0.50;;;25.90;99.90;;;;;;5072006;28;20433;-59
2021/08/10 11:34:39;;;;;;;0.90;0.40;;;26.10;99.90;;;;;;5070436;28;20427;-59
2021/08/10 11:37:30;;;;;;;0.77;0.40;;;25.90;99.90;;;;;;5072427;28;20921;-59
2021/08/10 11:40:08;;;;;;;0.70;0.50;;;25.90;99.90;;;;;;5073129;28;20412;-59
2021/08/10 11:42:35;;;;;;;1.10;0.50;;;26.00;99.90;;;;;;5072351;28;20431;-59
2021/08/10 11:45:04;;;;;;;0.70;0.40;;;26.20;99.90;;;;;;5072350;28;20426;-59
2021/08/10 11:47:31;;;;;;;0.50;0.30;;;25.60;99.90;;;;;;5071653;28;20438;-59
2021/08/10 11:49:58;;;;;;;1.30;0.40;;;25.80;99.90;;;;;;5071373;28;20847;-59
2021/08/10 11:52:45;;;;;;;0.90;0.40;;;25.90;99.90;;;;;;5072051;28;20506;-59
2021/08/10 11:55:15;;;;;;;0.50;0.30;;;25.90;99.90;;;;;;5072169;28;20431;-59
2021/08/10 11:58:04;;;;;;;1.20;0.47;;;26.10;99.90;;;;;;5072066;28;20430;-59
2021/08/10 12:00:33;;;;;;;0.70;0.40;;;26.00;99.90;;;;;;5069997;28;20701;-59
2021/08/10 12:03:00;;;;;;;0.70;0.40;;;26.20;99.90;;;;;;5071233;28;20427;-59
2021/08/10 12:05:28;;;;;;;1.50;0.40;;;26.20;99.90;;;;;;5069687;28;20727;-59
2021/08/10 12:07:57;;;;;;;0.70;0.50;;;26.40;99.90;;;;;;5070949;28;20434;-59
2021/08/10 12:10:31;;;;;;;0.80;0.40;;;26.40;99.90;;;;;;5071302;28;20812;-60
2021/08/10 12:13:00;;;;;;;1.00;0.50;;;26.40;99.90;;;;;;5071445;28;20467;-60
2021/08/10 12:15:39;;;;;;;0.85;0.40;;;26.40;99.90;;;;;;5070232;28;20420;-61
2021/08/10 12:18:06;;;;;;;1.58;0.50;;;26.40;99.90;;;;;;5069883;28;20439;-62
2021/08/10 12:20:33;;;;;;;1.30;0.52;;;26.20;99.90;;;;;;5071295;28;20824;-61
2021/08/10 12:23:01;;;;;;;0.82;0.43;;;26.20;99.90;;;;;;5071817;28;20522;-61
2021/08/10 12:25:30;;;;;;;0.60;0.40;;;26.20;99.90;;;;;;5071725;28;20423;-62
2021/08/10 12:28:04;;;;;;;1.40;0.50;;;26.10;99.90;;;;;;5071845;28;20527;-61
2021/08/10 12:30:32;;;;;;;0.90;0.40;;;26.10;99.90;;;;;;5071324;28;20431;-61
2021/08/10 12:33:13;;;;;;;1.67;0.50;;;25.60;99.90;;;;;;5071851;28;20529;-61
2021/08/10 12:35:41;;;;;;;1.17;0.50;;;25.60;99.90;;;;;;5072024;28;20506;-61
2021/08/10 12:38:08;;;;;;;1.10;0.50;;;25.60;99.90;;;;;;5091319;28;20413;-62
2021/08/10 12:40:36;;;;;;;3.35;0.60;;;25.80;99.90;;;;;;5090977;28;20424;-61
2021/08/10 12:43:04;;;;;;;1.42;0.50;;;26.00;99.90;;;;;;5091941;28;20532;-61
2021/08/10 12:45:32;;;;;;;0.70;0.50;;;26.10;99.90;;;;;;5091766;28;20497;-61
2021/08/10 12:47:59;;;;;;;1.27;0.50;;;26.30;99.90;;;;;;5091463;28;20920;-61
2021/08/10 12:50:29;;;;;;;1.80;0.40;;;26.40;99.90;;;;;;5093167;28;20669;-62
2021/08/10 12:52:57;;;;;;;1.10;0.40;;;26.50;99.90;;;;;;5093659;28;20524;-61
2021/08/10 12:55:24;;;;;;;1.10;0.50;;;26.60;99.90;;;;;;5093125;28;20485;-61
2021/08/10 12:58:01;;;;;;;0.85;0.50;;;26.90;99.90;;;;;;5093258;28;20432;-63
2021/08/10 13:00:28;;;;;;;1.02;0.50;;;27.00;99.90;;;;;;5090342;28;20406;-62